sensor_id;sensor_type;location;lat;lon;timestamp;P1;durP1;ratioP1;P2;durP2;ratioP2
27367;SDS011;14839;48.106;11.618;2024-03-29T05:02:38;0.30;;;0.30;;
27367;SDS011;14839;48.106;11.618;2024-03-29T05:05:03;0.20;;;0.20;;
27367;SDS011;14839;48.106;11.618;2024-03-29T05:07:29;0.53;;;0.30;;
27367;SDS011;14839;48.106;11.618;2024-03-29T05:09:55;0.40;;;0.40;;
27367;SDS011;14839;48.106;11.618;2024-03-29T05:12:21;0.83;;;0.50;;
27367;SDS011;14839;48.106;11.618;2024-03-29T05:14:46;0.50;;;0.30;;
27367;SDS011;14839;48.106;11.618;2024-03-29T05:17:14;0.50;;;0.40;;
27367;SDS011;14839;48.106;11.618;2024-03-29T05:19:40;0.60;;;0.30;;
27367;SDS011;14839;48.106;11.618;2024-03-29T05:22:05;0.40;;;0.40;;
27367;SDS011;14839;48.106;11.618;2024-03-29T05:24:31;1.33;;;0.47;;
27367;SDS011;14839;48.106;11.618;2024-03-29T05:26:57;0.80;;;0.50;;
27367;SDS011;14839;48.106;11.618;2024-03-29T05:29:22;0.40;;;0.40;;
27367;SDS011;14839;48.106;11.618;2024-03-29T05:31:48;1.40;;;0.50;;
27367;SDS011;14839;48.106;11.618;2024-03-29T05:34:13;1.20;;;0.50;;
27367;SDS011;14839;48.106;11.618;2024-03-29T05:36:39;0.63;;;0.50;;
27367;SDS011;14839;48.106;11.618;2024-03-29T05:39:05;0.50;;;0.33;;
27367;SDS011;14839;48.106;11.618;2024-03-29T05:41:31;1.03;;;0.70;;
27367;SDS011;14839;48.106;11.618;2024-03-29T05:43:57;1.03;;;0.70;;
27367;SDS011;14839;48.106;11.618;2024-03-29T05:46:23;0.93;;;0.47;;
27367;SDS011;14839;48.106;11.618;2024-03-29T05:48:48;0.73;;;0.53;;
27367;SDS011;14839;48.106;11.618;2024-03-29T05:51:14;0.80;;;0.60;;
27367;SDS011;14839;48.106;11.618;2024-03-29T05:53:39;4.83;;;0.80;;
27367;SDS011;14839;48.106;11.618;2024-03-29T05:56:05;0.53;;;0.43;;
27367;SDS011;14839;48.106;11.618;2024-03-29T05:58:32;1.43;;;0.80;;
27367;SDS011;14839;48.106;11.618;2024-03-29T06:00:58;1.40;;;0.73;;
27367;SDS011;14839;48.106;11.618;2024-03-29T06:03:24;1.10;;;0.70;;
27367;SDS011;14839;48.106;11.618;2024-03-29T06:05:50;1.30;;;0.70;;
27367;SDS011;14839;48.106;11.618;2024-03-29T06:08:15;1.13;;;0.60;;
27367;SDS011;14839;48.106;11.618;2024-03-29T06:10:41;1.33;;;0.70;;
27367;SDS011;14839;48.106;11.618;2024-03-29T06:13:07;1.50;;;0.50;;
27367;SDS011;14839;48.106;11.618;2024-03-29T06:15:35;1.40;;;0.60;;
27367;SDS011;14839;48.106;11.618;2024-03-29T06:18:19;0.73;;;0.70;;
27367;SDS011;14839;48.106;11.618;2024-03-29T06:20:46;0.73;;;0.67;;
27367;SDS011;14839;48.106;11.618;2024-03-29T06:23:13;1.13;;;0.60;;
27367;SDS011;14839;48.106;11.618;2024-03-29T06:25:39;1.13;;;0.70;;
27367;SDS011;14839;48.106;11.618;2024-03-29T06:28:05;0.83;;;0.70;;
27367;SDS011;14839;48.106;11.618;2024-03-29T06:30:31;0.90;;;0.70;;
27367;SDS011;14839;48.106;11.618;2024-03-29T06:32:56;1.80;;;0.90;;
27367;SDS011;14839;48.106;11.618;2024-03-29T06:35:22;1.90;;;1.00;;
27367;SDS011;14839;48.106;11.618;2024-03-29T06:37:48;1.17;;;0.70;;
27367;SDS011;14839;48.106;11.618;2024-03-29T06:40:13;1.00;;;0.90;;
27367;SDS011;14839;48.106;11.618;2024-03-29T06:42:39;0.60;;;0.53;;
27367;SDS011;14839;48.106;11.618;2024-03-29T06:45:05;1.57;;;0.87;;
27367;SDS011;14839;48.106;11.618;2024-03-29T06:47:31;0.80;;;0.60;;
27367;SDS011;14839;48.106;11.618;2024-03-29T06:49:57;0.50;;;0.50;;
27367;SDS011;14839;48.106;11.618;2024-03-29T06:52:23;1.10;;;0.70;;
27367;SDS011;14839;48.106;11.618;2024-03-29T06:54:48;0.80;;;0.70;;
27367;SDS011;14839;48.106;11.618;2024-03-29T06:57:14;0.57;;;0.57;;
27367;SDS011;14839;48.106;11.618;2024-03-29T06:59:42;2.00;;;0.60;;
27367;SDS011;14839;48.106;11.618;2024-03-29T07:02:08;0.67;;;0.60;;
27367;SDS011;14839;48.106;11.618;2024-03-29T07:04:35;0.60;;;0.50;;
27367;SDS011;14839;48.106;11.618;2024-03-29T07:07:00;0.83;;;0.70;;
27367;SDS011;14839;48.106;11.618;2024-03-29T07:09:26;0.47;;;0.47;;
27367;SDS011;14839;48.106;11.618;2024-03-29T07:11:51;0.87;;;0.50;;
27367;SDS011;14839;48.106;11.618;2024-03-29T07:14:17;0.50;;;0.40;;
27367;SDS011;14839;48.106;11.618;2024-03-29T07:16:44;0.47;;;0.40;;
27367;SDS011;14839;48.106;11.618;2024-03-29T07:19:10;0.80;;;0.60;;
27367;SDS011;14839;48.106;11.618;2024-03-29T07:21:41;0.93;;;0.53;;
27367;SDS011;14839;48.106;11.618;2024-03-29T07:24:10;0.33;;;0.30;;
27367;SDS011;14839;48.106;11.618;2024-03-29T07:26:36;1.73;;;0.50;;
27367;SDS011;14839;48.106;11.618;2024-03-29T07:29:02;2.47;;;0.57;;
27367;SDS011;14839;48.106;11.618;2024-03-29T07:31:30;0.53;;;0.50;;
27367;SDS011;14839;48.106;11.618;2024-03-29T07:33:55;0.60;;;0.40;;
27367;SDS011;14839;48.106;11.618;2024-03-29T07:36:21;1.70;;;0.80;;
27367;SDS011;14839;48.106;11.618;2024-03-29T07:38:49;0.80;;;0.47;;
27367;SDS011;14839;48.106;11.618;2024-03-29T07:41:15;0.80;;;0.80;;
27367;SDS011;14839;48.106;11.618;2024-03-29T07:43:41;0.60;;;0.40;;
27367;SDS011;14839;48.106;11.618;2024-03-29T07:46:27;0.50;;;0.43;;
27367;SDS011;14839;48.106;11.618;2024-03-29T07:48:52;0.60;;;0.60;;
27367;SDS011;14839;48.106;11.618;2024-03-29T07:51:18;0.30;;;0.30;;
27367;SDS011;14839;48.106;11.618;2024-03-29T07:53:43;0.43;;;0.40;;
27367;SDS011;14839;48.106;11.618;2024-03-29T07:56:09;0.40;;;0.40;;
27367;SDS011;14839;48.106;11.618;2024-03-29T07:58:35;0.53;;;0.40;;
27367;SDS011;14839;48.106;11.618;2024-03-29T08:01:00;0.40;;;0.30;;
27367;SDS011;14839;48.106;11.618;2024-03-29T08:03:26;1.47;;;0.37;;
27367;SDS011;14839;48.106;11.618;2024-03-29T08:05:58;0.50;;;0.43;;
27367;SDS011;14839;48.106;11.618;2024-03-29T08:08:24;1.03;;;0.30;;
27367;SDS011;14839;48.106;11.618;2024-03-29T08:10:52;0.40;;;0.40;;
27367;SDS011;14839;48.106;11.618;2024-03-29T08:13:18;0.45;;;0.30;;
27367;SDS011;14839;48.106;11.618;2024-03-29T08:15:45;0.35;;;0.30;;
27367;SDS011;14839;48.106;11.618;2024-03-29T08:18:11;0.20;;;0.10;;
27367;SDS011;14839;48.106;11.618;2024-03-29T08:20:37;1.10;;;0.43;;
27367;SDS011;14839;48.106;11.618;2024-03-29T08:23:03;0.30;;;0.25;;
27367;SDS011;14839;48.106;11.618;2024-03-29T08:25:29;0.73;;;0.30;;
27367;SDS011;14839;48.106;11.618;2024-03-29T08:27:54;1.17;;;0.35;;
27367;SDS011;14839;48.106;11.618;2024-03-29T08:30:26;0.20;;;0.20;;
27367;SDS011;14839;48.106;11.618;2024-03-29T08:32:56;0.40;;;0.40;;
27367;SDS011;14839;48.106;11.618;2024-03-29T08:35:24;1.00;;;0.38;;
27367;SDS011;14839;48.106;11.618;2024-03-29T08:37:50;0.50;;;0.20;;
27367;SDS011;14839;48.106;11.618;2024-03-29T08:40:15;0.82;;;0.50;;
27367;SDS011;14839;48.106;11.618;2024-03-29T08:42:41;0.25;;;0.25;;
27367;SDS011;14839;48.106;11.618;2024-03-29T08:45:07;1.65;;;0.38;;
27367;SDS011;14839;48.106;11.618;2024-03-29T08:47:33;0.68;;;0.20;;
27367;SDS011;14839;48.106;11.618;2024-03-29T08:49:59;0.30;;;0.20;;
27367;SDS011;14839;48.106;11.618;2024-03-29T08:52:24;0.63;;;0.30;;
27367;SDS011;14839;48.106;11.618;2024-03-29T08:54:50;0.75;;;0.22;;
27367;SDS011;14839;48.106;11.618;2024-03-29T08:57:16;0.22;;;0.20;;
27367;SDS011;14839;48.106;11.618;2024-03-29T08:59:41;0.40;;;0.20;;
27367;SDS011;14839;48.106;11.618;2024-03-29T09:02:07;0.20;;;0.20;;
27367;SDS011;14839;48.106;11.618;2024-03-29T09:04:32;4.20;;;0.30;;
27367;SDS011;14839;48.106;11.618;2024-03-29T09:07:01;0.50;;;0.30;;
27367;SDS011;14839;48.106;11.618;2024-03-29T09:09:31;0.52;;;0.30;;
27367;SDS011;14839;48.106;11.618;2024-03-29T09:11:57;0.30;;;0.30;;
27367;SDS011;14839;48.106;11.618;2024-03-29T09:14:23;0.45;;;0.32;;
27367;SDS011;14839;48.106;11.618;2024-03-29T09:16:49;0.40;;;0.30;;
27367;SDS011;14839;48.106;11.618;2024-03-29T09:19:15;0.63;;;0.28;;
27367;SDS011;14839;48.106;11.618;2024-03-29T09:21:42;1.00;;;0.52;;
27367;SDS011;14839;48.106;11.618;2024-03-29T09:24:07;0.50;;;0.40;;
27367;SDS011;14839;48.106;11.618;2024-03-29T09:26:33;0.28;;;0.20;;
27367;SDS011;14839;48.106;11.618;2024-03-29T09:28:59;0.90;;;0.32;;
27367;SDS011;14839;48.106;11.618;2024-03-29T09:31:24;0.80;;;0.30;;
27367;SDS011;14839;48.106;11.618;2024-03-29T09:33:50;0.40;;;0.30;;
27367;SDS011;14839;48.106;11.618;2024-03-29T09:36:21;0.52;;;0.30;;
27367;SDS011;14839;48.106;11.618;2024-03-29T09:38:50;1.02;;;0.63;;
27367;SDS011;14839;48.106;11.618;2024-03-29T09:41:16;1.10;;;0.30;;
27367;SDS011;14839;48.106;11.618;2024-03-29T09:43:46;0.38;;;0.30;;
27367;SDS011;14839;48.106;11.618;2024-03-29T09:46:13;0.20;;;0.15;;
27367;SDS011;14839;48.106;11.618;2024-03-29T09:48:40;0.30;;;0.20;;
27367;SDS011;14839;48.106;11.618;2024-03-29T09:51:07;0.40;;;0.40;;
27367;SDS011;14839;48.106;11.618;2024-03-29T09:53:36;0.65;;;0.47;;
27367;SDS011;14839;48.106;11.618;2024-03-29T09:56:03;0.90;;;0.50;;
27367;SDS011;14839;48.106;11.618;2024-03-29T09:58:33;0.77;;;0.40;;
27367;SDS011;14839;48.106;11.618;2024-03-29T10:00:59;0.40;;;0.30;;
27367;SDS011;14839;48.106;11.618;2024-03-29T10:03:28;0.65;;;0.40;;
27367;SDS011;14839;48.106;11.618;2024-03-29T10:05:58;1.42;;;0.40;;
27367;SDS011;14839;48.106;11.618;2024-03-29T10:08:28;2.88;;;0.40;;
27367;SDS011;14839;48.106;11.618;2024-03-29T10:10:56;0.95;;;0.35;;
27367;SDS011;14839;48.106;11.618;2024-03-29T10:13:22;0.90;;;0.40;;
27367;SDS011;14839;48.106;11.618;2024-03-29T10:15:54;1.15;;;0.50;;
27367;SDS011;14839;48.106;11.618;2024-03-29T10:18:25;0.60;;;0.20;;
27367;SDS011;14839;48.106;11.618;2024-03-29T10:20:58;0.80;;;0.40;;
27367;SDS011;14839;48.106;11.618;2024-03-29T10:23:41;0.98;;;0.50;;
27367;SDS011;14839;48.106;11.618;2024-03-29T10:26:08;1.13;;;0.35;;
27367;SDS011;14839;48.106;11.618;2024-03-29T10:28:34;0.55;;;0.38;;
27367;SDS011;14839;48.106;11.618;2024-03-29T10:31:02;0.20;;;0.13;;
27367;SDS011;14839;48.106;11.618;2024-03-29T10:33:29;0.20;;;0.17;;
27367;SDS011;14839;48.106;11.618;2024-03-29T10:35:58;1.15;;;0.50;;
27367;SDS011;14839;48.106;11.618;2024-03-29T10:38:25;0.30;;;0.22;;
27367;SDS011;14839;48.106;11.618;2024-03-29T10:40:51;0.65;;;0.30;;
27367;SDS011;14839;48.106;11.618;2024-03-29T10:43:18;0.30;;;0.30;;
27367;SDS011;14839;48.106;11.618;2024-03-29T10:45:44;0.95;;;0.28;;
27367;SDS011;14839;48.106;11.618;2024-03-29T10:48:12;0.43;;;0.28;;
27367;SDS011;14839;48.106;11.618;2024-03-29T10:50:40;0.45;;;0.30;;
27367;SDS011;14839;48.106;11.618;2024-03-29T10:53:08;1.02;;;0.60;;
27367;SDS011;14839;48.106;11.618;2024-03-29T10:55:36;0.32;;;0.30;;
27367;SDS011;14839;48.106;11.618;2024-03-29T10:58:05;0.73;;;0.40;;
27367;SDS011;14839;48.106;11.618;2024-03-29T11:00:37;0.45;;;0.32;;
27367;SDS011;14839;48.106;11.618;2024-03-29T11:03:20;2.50;;;0.38;;
27367;SDS011;14839;48.106;11.618;2024-03-29T11:06:06;3.33;;;0.60;;
27367;SDS011;14839;48.106;11.618;2024-03-29T11:08:33;1.05;;;0.30;;
27367;SDS011;14839;48.106;11.618;2024-03-29T11:11:03;0.80;;;0.40;;
27367;SDS011;14839;48.106;11.618;2024-03-29T11:16:14;0.40;;;0.25;;
27367;SDS011;14839;48.106;11.618;2024-03-29T11:18:44;0.32;;;0.10;;
27367;SDS011;14839;48.106;11.618;2024-03-29T11:21:12;0.20;;;0.20;;
27367;SDS011;14839;48.106;11.618;2024-03-29T11:23:43;0.50;;;0.30;;
27367;SDS011;14839;48.106;11.618;2024-03-29T11:26:13;0.30;;;0.30;;
27367;SDS011;14839;48.106;11.618;2024-03-29T11:28:40;0.30;;;0.30;;
27367;SDS011;14839;48.106;11.618;2024-03-29T11:31:08;0.38;;;0.30;;
27367;SDS011;14839;48.106;11.618;2024-03-29T11:33:35;2.15;;;0.20;;
27367;SDS011;14839;48.106;11.618;2024-03-29T11:36:13;0.32;;;0.25;;
27367;SDS011;14839;48.106;11.618;2024-03-29T11:38:41;0.30;;;0.20;;
27367;SDS011;14839;48.106;11.618;2024-03-29T11:41:12;0.52;;;0.22;;
27367;SDS011;14839;48.106;11.618;2024-03-29T11:43:38;0.20;;;0.10;;
27367;SDS011;14839;48.106;11.618;2024-03-29T11:46:06;0.35;;;0.25;;
27367;SDS011;14839;48.106;11.618;2024-03-29T11:48:33;0.20;;;0.20;;
27367;SDS011;14839;48.106;11.618;2024-03-29T11:51:01;0.60;;;0.28;;
27367;SDS011;14839;48.106;11.618;2024-03-29T11:53:28;0.25;;;0.20;;
27367;SDS011;14839;48.106;11.618;2024-03-29T11:55:56;0.40;;;0.30;;
27367;SDS011;14839;48.106;11.618;2024-03-29T11:58:24;0.40;;;0.30;;
27367;SDS011;14839;48.106;11.618;2024-03-29T12:00:51;0.20;;;0.20;;
27367;SDS011;14839;48.106;11.618;2024-03-29T12:03:17;0.57;;;0.30;;
27367;SDS011;14839;48.106;11.618;2024-03-29T12:05:45;0.32;;;0.28;;
27367;SDS011;14839;48.106;11.618;2024-03-29T12:08:12;0.30;;;0.20;;
27367;SDS011;14839;48.106;11.618;2024-03-29T12:10:38;0.63;;;0.32;;
27367;SDS011;14839;48.106;11.618;2024-03-29T12:13:05;0.20;;;0.20;;
27367;SDS011;14839;48.106;11.618;2024-03-29T12:15:31;0.65;;;0.30;;
27367;SDS011;14839;48.106;11.618;2024-03-29T12:17:58;0.40;;;0.35;;
27367;SDS011;14839;48.106;11.618;2024-03-29T12:20:26;0.20;;;0.20;;
27367;SDS011;14839;48.106;11.618;2024-03-29T12:22:55;0.20;;;0.20;;
27367;SDS011;14839;48.106;11.618;2024-03-29T12:25:23;0.47;;;0.20;;
27367;SDS011;14839;48.106;11.618;2024-03-29T12:27:49;0.20;;;0.20;;
27367;SDS011;14839;48.106;11.618;2024-03-29T12:30:14;0.90;;;0.20;;
27367;SDS011;14839;48.106;11.618;2024-03-29T12:32:40;0.20;;;0.20;;
27367;SDS011;14839;48.106;11.618;2024-03-29T12:35:10;0.20;;;0.10;;
27367;SDS011;14839;48.106;11.618;2024-03-29T12:37:36;0.30;;;0.20;;
27367;SDS011;14839;48.106;11.618;2024-03-29T12:40:04;0.20;;;0.20;;
27367;SDS011;14839;48.106;11.618;2024-03-29T12:42:40;0.45;;;0.30;;
27367;SDS011;14839;48.106;11.618;2024-03-29T12:45:05;0.32;;;0.30;;
27367;SDS011;14839;48.106;11.618;2024-03-29T12:47:32;0.20;;;0.15;;
27367;SDS011;14839;48.106;11.618;2024-03-29T12:49:59;0.45;;;0.20;;
27367;SDS011;14839;48.106;11.618;2024-03-29T12:52:25;0.20;;;0.20;;
27367;SDS011;14839;48.106;11.618;2024-03-29T12:54:51;0.88;;;0.20;;
27367;SDS011;14839;48.106;11.618;2024-03-29T12:57:17;0.40;;;0.20;;
27367;SDS011;14839;48.106;11.618;2024-03-29T12:59:43;0.50;;;0.17;;
27367;SDS011;14839;48.106;11.618;2024-03-29T13:02:11;0.20;;;0.10;;
27367;SDS011;14839;48.106;11.618;2024-03-29T13:04:38;0.35;;;0.20;;
27367;SDS011;14839;48.106;11.618;2024-03-29T13:07:08;0.20;;;0.20;;
27367;SDS011;14839;48.106;11.618;2024-03-29T13:09:34;0.20;;;0.20;;
27367;SDS011;14839;48.106;11.618;2024-03-29T13:11:59;1.05;;;0.20;;
27367;SDS011;14839;48.106;11.618;2024-03-29T13:14:25;0.25;;;0.22;;
27367;SDS011;14839;48.106;11.618;2024-03-29T13:16:51;0.63;;;0.20;;
27367;SDS011;14839;48.106;11.618;2024-03-29T13:19:16;0.20;;;0.10;;
27367;SDS011;14839;48.106;11.618;2024-03-29T13:21:42;0.30;;;0.20;;
27367;SDS011;14839;48.106;11.618;2024-03-29T13:24:07;0.30;;;0.20;;
27367;SDS011;14839;48.106;11.618;2024-03-29T13:26:33;0.20;;;0.20;;
27367;SDS011;14839;48.106;11.618;2024-03-29T13:28:58;0.20;;;0.10;;
27367;SDS011;14839;48.106;11.618;2024-03-29T13:31:25;0.20;;;0.10;;
27367;SDS011;14839;48.106;11.618;2024-03-29T13:33:53;0.20;;;0.10;;
27367;SDS011;14839;48.106;11.618;2024-03-29T13:36:31;0.43;;;0.20;;
27367;SDS011;14839;48.106;11.618;2024-03-29T13:38:57;0.20;;;0.15;;
27367;SDS011;14839;48.106;11.618;2024-03-29T13:41:22;0.20;;;0.20;;
27367;SDS011;14839;48.106;11.618;2024-03-29T13:43:48;0.20;;;0.20;;
27367;SDS011;14839;48.106;11.618;2024-03-29T13:46:14;0.20;;;0.20;;
27367;SDS011;14839;48.106;11.618;2024-03-29T13:48:40;0.20;;;0.10;;
27367;SDS011;14839;48.106;11.618;2024-03-29T13:51:06;0.20;;;0.10;;
27367;SDS011;14839;48.106;11.618;2024-03-29T13:53:32;0.20;;;0.10;;
27367;SDS011;14839;48.106;11.618;2024-03-29T13:56:00;0.20;;;0.15;;
27367;SDS011;14839;48.106;11.618;2024-03-29T13:58:28;0.20;;;0.20;;
27367;SDS011;14839;48.106;11.618;2024-03-29T14:00:54;0.30;;;0.20;;
27367;SDS011;14839;48.106;11.618;2024-03-29T14:03:21;0.20;;;0.10;;
27367;SDS011;14839;48.106;11.618;2024-03-29T14:05:50;0.28;;;0.20;;
27367;SDS011;14839;48.106;11.618;2024-03-29T14:08:15;0.20;;;0.10;;
27367;SDS011;14839;48.106;11.618;2024-03-29T14:10:41;0.20;;;0.10;;
27367;SDS011;14839;48.106;11.618;2024-03-29T14:13:07;0.20;;;0.13;;
27367;SDS011;14839;48.106;11.618;2024-03-29T14:15:34;0.20;;;0.13;;
27367;SDS011;14839;48.106;11.618;2024-03-29T14:17:59;0.20;;;0.10;;
27367;SDS011;14839;48.106;11.618;2024-03-29T14:20:25;0.30;;;0.20;;
27367;SDS011;14839;48.106;11.618;2024-03-29T14:22:51;0.20;;;0.10;;
27367;SDS011;14839;48.106;11.618;2024-03-29T14:25:20;0.20;;;0.10;;
27367;SDS011;14839;48.106;11.618;2024-03-29T14:27:46;0.20;;;0.10;;
27367;SDS011;14839;48.106;11.618;2024-03-29T14:30:19;0.20;;;0.10;;
27367;SDS011;14839;48.106;11.618;2024-03-29T14:32:46;0.38;;;0.25;;
27367;SDS011;14839;48.106;11.618;2024-03-29T14:35:12;0.20;;;0.20;;
27367;SDS011;14839;48.106;11.618;2024-03-29T14:37:39;0.20;;;0.20;;
27367;SDS011;14839;48.106;11.618;2024-03-29T14:40:05;0.40;;;0.20;;
27367;SDS011;14839;48.106;11.618;2024-03-29T14:42:31;0.20;;;0.20;;
27367;SDS011;14839;48.106;11.618;2024-03-29T14:44:57;0.30;;;0.20;;
27367;SDS011;14839;48.106;11.618;2024-03-29T14:47:23;0.30;;;0.20;;
27367;SDS011;14839;48.106;11.618;2024-03-29T14:49:48;0.50;;;0.13;;
27367;SDS011;14839;48.106;11.618;2024-03-29T14:52:14;0.20;;;0.10;;
27367;SDS011;14839;48.106;11.618;2024-03-29T14:54:40;0.20;;;0.17;;
27367;SDS011;14839;48.106;11.618;2024-03-29T14:57:08;0.20;;;0.20;;
27367;SDS011;14839;48.106;11.618;2024-03-29T14:59:33;0.20;;;0.20;;
27367;SDS011;14839;48.106;11.618;2024-03-29T15:02:01;0.20;;;0.10;;
27367;SDS011;14839;48.106;11.618;2024-03-29T15:04:27;0.20;;;0.10;;
27367;SDS011;14839;48.106;11.618;2024-03-29T15:06:52;0.20;;;0.20;;
27367;SDS011;14839;48.106;11.618;2024-03-29T15:09:18;0.40;;;0.20;;
27367;SDS011;14839;48.106;11.618;2024-03-29T15:11:44;1.00;;;0.40;;
27367;SDS011;14839;48.106;11.618;2024-03-29T15:14:09;0.82;;;0.30;;
27367;SDS011;14839;48.106;11.618;2024-03-29T15:16:35;0.88;;;0.30;;
27367;SDS011;14839;48.106;11.618;2024-03-29T15:19:01;1.85;;;0.40;;
27367;SDS011;14839;48.106;11.618;2024-03-29T15:21:27;0.50;;;0.47;;
27367;SDS011;14839;48.106;11.618;2024-03-29T15:23:53;0.20;;;0.10;;
27367;SDS011;14839;48.106;11.618;2024-03-29T15:26:19;0.73;;;0.30;;
27367;SDS011;14839;48.106;11.618;2024-03-29T15:28:45;1.00;;;0.30;;
27367;SDS011;14839;48.106;11.618;2024-03-29T15:31:29;1.75;;;0.50;;
27367;SDS011;14839;48.106;11.618;2024-03-29T15:33:55;0.40;;;0.32;;
27367;SDS011;14839;48.106;11.618;2024-03-29T15:36:21;0.32;;;0.22;;
27367;SDS011;14839;48.106;11.618;2024-03-29T15:38:47;0.30;;;0.25;;
27367;SDS011;14839;48.106;11.618;2024-03-29T15:41:19;0.22;;;0.20;;
27367;SDS011;14839;48.106;11.618;2024-03-29T15:43:45;0.38;;;0.30;;
27367;SDS011;14839;48.106;11.618;2024-03-29T15:46:10;0.50;;;0.20;;
27367;SDS011;14839;48.106;11.618;2024-03-29T15:48:36;0.47;;;0.30;;
27367;SDS011;14839;48.106;11.618;2024-03-29T15:51:06;0.30;;;0.20;;
27367;SDS011;14839;48.106;11.618;2024-03-29T15:53:35;0.20;;;0.20;;
27367;SDS011;14839;48.106;11.618;2024-03-29T15:56:01;0.40;;;0.30;;
27367;SDS011;14839;48.106;11.618;2024-03-29T15:58:26;0.30;;;0.30;;
27367;SDS011;14839;48.106;11.618;2024-03-29T16:00:52;0.75;;;0.22;;
27367;SDS011;14839;48.106;11.618;2024-03-29T16:03:17;1.35;;;0.30;;
27367;SDS011;14839;48.106;11.618;2024-03-29T16:05:44;0.98;;;0.25;;
27367;SDS011;14839;48.106;11.618;2024-03-29T16:08:14;0.20;;;0.15;;
27367;SDS011;14839;48.106;11.618;2024-03-29T16:10:56;0.88;;;0.50;;
27367;SDS011;14839;48.106;11.618;2024-03-29T16:13:24;3.83;;;0.60;;
27367;SDS011;14839;48.106;11.618;2024-03-29T16:15:50;2.65;;;0.63;;
27367;SDS011;14839;48.106;11.618;2024-03-29T16:18:17;3.67;;;0.77;;
27367;SDS011;14839;48.106;11.618;2024-03-29T16:20:43;3.08;;;0.55;;
27367;SDS011;14839;48.106;11.618;2024-03-29T16:23:10;1.85;;;0.50;;
27367;SDS011;14839;48.106;11.618;2024-03-29T16:25:37;5.78;;;0.85;;
27367;SDS011;14839;48.106;11.618;2024-03-29T16:28:03;5.68;;;0.98;;
27367;SDS011;14839;48.106;11.618;2024-03-29T16:30:30;7.80;;;1.27;;
27367;SDS011;14839;48.106;11.618;2024-03-29T16:32:55;6.50;;;1.35;;
27367;SDS011;14839;48.106;11.618;2024-03-29T16:35:21;6.90;;;1.50;;
27367;SDS011;14839;48.106;11.618;2024-03-29T16:37:47;7.70;;;1.77;;
27367;SDS011;14839;48.106;11.618;2024-03-29T16:40:12;13.10;;;1.63;;
27367;SDS011;14839;48.106;11.618;2024-03-29T16:42:38;17.10;;;2.17;;
27367;SDS011;14839;48.106;11.618;2024-03-29T16:45:04;6.50;;;2.17;;
27367;SDS011;14839;48.106;11.618;2024-03-29T16:47:30;13.73;;;2.10;;
27367;SDS011;14839;48.106;11.618;2024-03-29T16:49:56;11.38;;;2.30;;
27367;SDS011;14839;48.106;11.618;2024-03-29T16:52:22;15.30;;;2.10;;
27367;SDS011;14839;48.106;11.618;2024-03-29T16:54:48;19.13;;;2.95;;
27367;SDS011;14839;48.106;11.618;2024-03-29T16:57:14;15.90;;;2.30;;
27367;SDS011;14839;48.106;11.618;2024-03-29T16:59:40;16.47;;;2.10;;
27367;SDS011;14839;48.106;11.618;2024-03-29T17:02:06;9.52;;;2.03;;
27367;SDS011;14839;48.106;11.618;2024-03-29T17:04:32;10.47;;;2.13;;
27367;SDS011;14839;48.106;11.618;2024-03-29T17:06:58;16.23;;;2.30;;
27367;SDS011;14839;48.106;11.618;2024-03-29T17:09:40;8.60;;;1.50;;
27367;SDS011;14839;48.106;11.618;2024-03-29T17:12:06;5.40;;;1.47;;
27367;SDS011;14839;48.106;11.618;2024-03-29T17:14:32;10.03;;;1.70;;
27367;SDS011;14839;48.106;11.618;2024-03-29T17:16:58;14.93;;;2.40;;
27367;SDS011;14839;48.106;11.618;2024-03-29T17:19:32;11.40;;;2.00;;
27367;SDS011;14839;48.106;11.618;2024-03-29T17:21:59;12.77;;;1.53;;
27367;SDS011;14839;48.106;11.618;2024-03-29T17:24:25;11.63;;;2.20;;
27367;SDS011;14839;48.106;11.618;2024-03-29T17:26:51;7.00;;;2.27;;
27367;SDS011;14839;48.106;11.618;2024-03-29T17:29:17;3.50;;;1.30;;
27367;SDS011;14839;48.106;11.618;2024-03-29T17:31:43;10.00;;;2.13;;
27367;SDS011;14839;48.106;11.618;2024-03-29T17:34:09;16.50;;;1.87;;
27367;SDS011;14839;48.106;11.618;2024-03-29T17:36:38;14.50;;;3.63;;
27367;SDS011;14839;48.106;11.618;2024-03-29T17:39:07;18.57;;;3.33;;
27367;SDS011;14839;48.106;11.618;2024-03-29T17:41:34;8.50;;;1.97;;
27367;SDS011;14839;48.106;11.618;2024-03-29T17:44:00;16.20;;;2.60;;
27367;SDS011;14839;48.106;11.618;2024-03-29T17:46:25;10.30;;;2.10;;
27367;SDS011;14839;48.106;11.618;2024-03-29T17:48:51;10.77;;;1.93;;
27367;SDS011;14839;48.106;11.618;2024-03-29T17:51:17;12.13;;;2.50;;
27367;SDS011;14839;48.106;11.618;2024-03-29T17:53:42;14.80;;;2.27;;
27367;SDS011;14839;48.106;11.618;2024-03-29T17:56:08;11.53;;;1.70;;
27367;SDS011;14839;48.106;11.618;2024-03-29T18:01:43;7.57;;;1.80;;
27367;SDS011;14839;48.106;11.618;2024-03-29T18:04:09;15.60;;;2.60;;
27367;SDS011;14839;48.106;11.618;2024-03-29T18:06:36;15.83;;;2.20;;
27367;SDS011;14839;48.106;11.618;2024-03-29T18:09:02;17.37;;;2.07;;
27367;SDS011;14839;48.106;11.618;2024-03-29T18:11:29;8.47;;;1.80;;
27367;SDS011;14839;48.106;11.618;2024-03-29T18:13:55;11.63;;;1.97;;
27367;SDS011;14839;48.106;11.618;2024-03-29T18:16:22;9.83;;;1.97;;
27367;SDS011;14839;48.106;11.618;2024-03-29T18:18:47;15.53;;;2.33;;
27367;SDS011;14839;48.106;11.618;2024-03-29T18:21:13;13.57;;;2.93;;
27367;SDS011;14839;48.106;11.618;2024-03-29T18:23:39;18.00;;;3.53;;
27367;SDS011;14839;48.106;11.618;2024-03-29T18:26:05;22.70;;;4.67;;
27367;SDS011;14839;48.106;11.618;2024-03-29T18:28:30;21.37;;;4.43;;
27367;SDS011;14839;48.106;11.618;2024-03-29T18:30:56;19.23;;;4.17;;
27367;SDS011;14839;48.106;11.618;2024-03-29T18:33:22;21.83;;;3.70;;
27367;SDS011;14839;48.106;11.618;2024-03-29T18:35:48;22.00;;;3.70;;
27367;SDS011;14839;48.106;11.618;2024-03-29T18:38:13;25.93;;;4.27;;
27367;SDS011;14839;48.106;11.618;2024-03-29T18:40:39;28.43;;;4.07;;
27367;SDS011;14839;48.106;11.618;2024-03-29T18:43:05;17.27;;;4.00;;
27367;SDS011;14839;48.106;11.618;2024-03-29T18:45:30;27.17;;;4.07;;
27367;SDS011;14839;48.106;11.618;2024-03-29T18:47:56;29.07;;;4.87;;
27367;SDS011;14839;48.106;11.618;2024-03-29T18:50:22;35.20;;;5.90;;
27367;SDS011;14839;48.106;11.618;2024-03-29T18:52:47;37.70;;;4.73;;
27367;SDS011;14839;48.106;11.618;2024-03-29T18:55:15;26.33;;;3.90;;
27367;SDS011;14839;48.106;11.618;2024-03-29T18:57:42;32.40;;;5.40;;
27367;SDS011;14839;48.106;11.618;2024-03-29T19:00:08;22.77;;;5.73;;
27367;SDS011;14839;48.106;11.618;2024-03-29T19:02:35;21.20;;;4.73;;
27367;SDS011;14839;48.106;11.618;2024-03-29T19:05:02;27.70;;;5.63;;
27367;SDS011;14839;48.106;11.618;2024-03-29T19:07:27;32.70;;;4.53;;
27367;SDS011;14839;48.106;11.618;2024-03-29T19:09:53;35.07;;;5.17;;
27367;SDS011;14839;48.106;11.618;2024-03-29T19:12:19;39.07;;;6.43;;
27367;SDS011;14839;48.106;11.618;2024-03-29T19:14:46;34.60;;;5.37;;
27367;SDS011;14839;48.106;11.618;2024-03-29T19:17:13;40.60;;;5.70;;
27367;SDS011;14839;48.106;11.618;2024-03-29T19:19:38;42.97;;;6.70;;
27367;SDS011;14839;48.106;11.618;2024-03-29T19:22:05;40.00;;;5.83;;
27367;SDS011;14839;48.106;11.618;2024-03-29T19:24:31;35.53;;;5.13;;
27367;SDS011;14839;48.106;11.618;2024-03-29T19:26:56;45.43;;;5.97;;
27367;SDS011;14839;48.106;11.618;2024-03-29T19:29:22;45.13;;;6.57;;
27367;SDS011;14839;48.106;11.618;2024-03-29T19:31:48;31.07;;;5.43;;
27367;SDS011;14839;48.106;11.618;2024-03-29T19:34:13;45.37;;;6.03;;
27367;SDS011;14839;48.106;11.618;2024-03-29T19:36:40;42.97;;;6.60;;
27367;SDS011;14839;48.106;11.618;2024-03-29T19:39:05;37.67;;;5.43;;